SEATTLE-TACOMA INTL

KSEA (SEA)
Seattle, Washington
Towered

Vatsim Metar:
KSEA 291353Z 36007KT 10SM CLR 12/11 A3010 RMK AO2 SLP197 T01220111

No ATC Online

Traffic

Inbound:
Ident
Type
Name
ETA
Phase
UPS6218
B748/H-SDE3FGHIM1M2RWXY/LB1
michael baker KSFO
15:17 Z
Cruse
VTK2012
H/B77L/L
Alexander Balandin EDDL
15:30 Z
Cruse
AWE509
A321/L
Ariel Pinto
16:43 Z
Cruse
CLX46U
B744/H-SDE3FGHIM1M2RWXY/LB1
Ben Cook EGMC
19:35 Z
Cruse

Outbound:
Ident
Type
Name
Destination
Phase